KSMP

Stampede Pass Airport

Washington, USA
METAR KSMP 191456Z AUTO 00000KT 10SM BKN049 OVC075 M02/M04 A2976 RMK AO2 SLP103 T10221039 53006 FZRANO $
Observed Flight Rules
Jan-19 @ 14:56 UTC (25 minutes ago) Visual Flight Rules
Wind Visibility Clouds
Calm 10 miles
  • Broken at 4,900' AGL
  • Overcast at 7,500' AGL
Temperatures Readings
Current -2°C / 28°F
Dewpoint -4°C / 25°F
Humidity 86%
Altimeter 29.76" Hg
Pressure 1010.3 hPa
Elevation 1208
METAR KSMP 191456Z AUTO 00000KT 10SM BKN049 OVC075 M02/M04 A2976 RMK AO2 SLP103 T10221039 53006 FZRANO $
Observed Flight Rules
Jan-19 @ 14:56 UTC
(25 minutes ago)
VFR
Wind Visibility
Calm 10 miles
Clouds
  • Broken at 4,900' AGL
  • Overcast at 7,500' AGL
Temperature Dewpoint
-2°C / 28°F -4°C / 25°F
Humidity Altimeter Pressure
86% 29.76" Hg 1010.3 hPa